Time;durP1;ratioP1;P1;durP2;ratioP2;P2;SDS_P1;SDS_P2;PMS_P1;PMS_P2;Temp;Humidity;BMP_temperature;BMP_pressure;BME280_temperature;BME280_humidity;BME280_pressure;Samples;Min_cycle;Max_cycle;Signal;HPM_P1;HPM_P2
2021/11/14 00:00:39;;;;;;;17.83;14.38;;;;;;;;;;2080500;28;20195;-61
2021/11/14 00:01:40;;;;;;;15.32;13.73;;;;;;;;;;2081116;28;20176;-61
2021/11/14 00:02:40;;;;;;;17.75;14.55;;;;;;;;;;2076521;28;20232;-62
2021/11/14 00:03:41;;;;;;;15.52;13.88;;;;;;;;;;2074449;28;20239;-61
2021/11/14 00:04:48;;;;;;;18.02;15.18;;;;;;;;;;2079359;28;20183;-61
2021/11/14 00:05:48;;;;;;;15.85;14.30;;;;;;;;;;2078763;28;20189;-65
2021/11/14 00:06:48;;;;;;;18.13;14.30;;;;;;;;;;2073482;28;20315;-63
2021/11/14 00:07:49;;;;;;;16.33;14.65;;;;;;;;;;2073093;28;20184;-59
2021/11/14 00:08:49;;;;;;;16.25;14.43;;;;;;;;;;2075144;28;20173;-53
2021/11/14 00:09:49;;;;;;;17.73;14.40;;;;;;;;;;2075097;28;20259;-64
2021/11/14 00:10:52;;;;;;;16.98;14.45;;;;;;;;;;2077471;28;20613;-61
2021/11/14 00:11:53;;;;;;;18.02;15.68;;;;;;;;;;2079528;28;20552;-60
2021/11/14 00:12:54;;;;;;;20.73;14.82;;;;;;;;;;2072279;28;20180;-60
2021/11/14 00:13:57;;;;;;;17.75;14.77;;;;;;;;;;2080630;28;20204;-57
2021/11/14 00:14:58;;;;;;;17.20;14.20;;;;;;;;;;2077014;28;20177;-60
2021/11/14 00:16:07;;;;;;;21.40;16.52;;;;;;;;;;2074534;28;20172;-62
2021/11/14 00:17:07;;;;;;;17.40;14.70;;;;;;;;;;2080225;28;20164;-65
2021/11/14 00:18:07;;;;;;;22.75;15.55;;;;;;;;;;2080132;28;20213;-62
2021/11/14 00:19:08;;;;;;;17.95;15.00;;;;;;;;;;2077649;28;20175;-62
2021/11/14 00:20:09;;;;;;;20.48;15.88;;;;;;;;;;2080228;28;20185;-64
2021/11/14 00:21:11;;;;;;;21.92;15.63;;;;;;;;;;2078072;28;20172;-65
2021/11/14 00:22:11;;;;;;;18.17;15.57;;;;;;;;;;2079697;28;20247;-64
2021/11/14 00:23:12;;;;;;;20.17;15.52;;;;;;;;;;2080687;28;20203;-63
2021/11/14 00:24:13;;;;;;;20.90;16.35;;;;;;;;;;2080778;28;20209;-64
2021/11/14 00:25:14;;;;;;;17.38;15.50;;;;;;;;;;2088024;28;20206;-62
2021/11/14 00:26:14;;;;;;;19.23;15.93;;;;;;;;;;2088300;28;20747;-62
2021/11/14 00:27:15;;;;;;;20.05;15.70;;;;;;;;;;2080849;28;20191;-64
2021/11/14 00:28:15;;;;;;;19.65;16.73;;;;;;;;;;2080835;28;20172;-60
2021/11/14 00:29:28;;;;;;;19.77;16.08;;;;;;;;;;2080678;28;20187;-59
2021/11/14 00:30:28;;;;;;;20.90;15.65;;;;;;;;;;2071610;28;20267;-64
2021/11/14 00:31:28;;;;;;;18.80;15.25;;;;;;;;;;2079999;28;20208;-62
2021/11/14 00:32:29;;;;;;;17.90;15.55;;;;;;;;;;2078892;28;20184;-62
2021/11/14 00:33:29;;;;;;;18.38;15.95;;;;;;;;;;2081359;28;20183;-63
2021/11/14 00:34:29;;;;;;;21.75;16.45;;;;;;;;;;2075668;28;20215;-60
2021/11/14 00:35:30;;;;;;;20.13;15.55;;;;;;;;;;2080510;28;20172;-61
2021/11/14 00:37:45;;;;;;;17.58;15.43;;;;;;;;;;2055583;28;20623;-54
2021/11/14 00:38:45;;;;;;;17.83;14.70;;;;;;;;;;2055983;28;20216;-54
2021/11/14 00:39:46;;;;;;;18.38;15.43;;;;;;;;;;2056990;28;20183;-54
2021/11/14 00:40:47;;;;;;;20.20;15.02;;;;;;;;;;2055258;28;20178;-50
2021/11/14 00:41:47;;;;;;;19.85;16.00;;;;;;;;;;2056577;28;20206;-53
2021/11/14 00:42:48;;;;;;;24.92;16.00;;;;;;;;;;2056801;28;20167;-50
2021/11/14 00:43:48;;;;;;;22.45;16.00;;;;;;;;;;2052569;28;20579;-52
2021/11/14 00:44:49;;;;;;;19.42;14.25;;;;;;;;;;2056541;28;20184;-50
2021/11/14 00:45:49;;;;;;;18.48;15.65;;;;;;;;;;2055995;28;20188;-51
2021/11/14 00:46:49;;;;;;;20.25;15.45;;;;;;;;;;2056606;28;20659;-50
2021/11/14 00:47:50;;;;;;;22.58;15.60;;;;;;;;;;2055779;28;20178;-51
2021/11/14 00:48:52;;;;;;;21.52;16.17;;;;;;;;;;2055611;28;20174;-55
2021/11/14 00:49:52;;;;;;;21.35;15.65;;;;;;;;;;2063948;28;20190;-51
2021/11/14 00:50:53;;;;;;;23.55;17.00;;;;;;;;;;2062941;28;20185;-50
2021/11/14 00:51:53;;;;;;;20.27;15.80;;;;;;;;;;2056261;28;20563;-51
2021/11/14 00:52:54;;;;;;;19.67;15.02;;;;;;;;;;2056448;28;20186;-50
2021/11/14 00:53:59;;;;;;;21.80;16.27;;;;;;;;;;2055551;28;20214;-50
2021/11/14 00:54:59;;;;;;;23.15;16.05;;;;;;;;;;2055525;28;20181;-52
2021/11/14 00:55:59;;;;;;;19.27;15.50;;;;;;;;;;2055638;28;20190;-51
2021/11/14 00:56:59;;;;;;;18.45;14.90;;;;;;;;;;2055439;28;20222;-52
2021/11/14 00:58:00;;;;;;;21.08;15.85;;;;;;;;;;2056325;28;20175;-51
2021/11/14 00:59:00;;;;;;;17.77;15.05;;;;;;;;;;2056334;28;20225;-50
2021/11/14 01:00:00;;;;;;;19.67;14.75;;;;;;;;;;2056462;28;20175;-55
2021/11/14 01:01:02;;;;;;;20.98;15.25;;;;;;;;;;2055998;28;20174;-50
2021/11/14 01:02:02;;;;;;;25.60;16.65;;;;;;;;;;2056150;28;20162;-50
2021/11/14 01:03:04;;;;;;;22.10;16.65;;;;;;;;;;2056441;28;20447;-50
2021/11/14 01:04:04;;;;;;;20.85;16.27;;;;;;;;;;2056214;28;20170;-52
2021/11/14 01:05:05;;;;;;;24.33;16.60;;;;;;;;;;2056355;28;20655;-50
2021/11/14 01:06:05;;;;;;;25.25;17.60;;;;;;;;;;2056003;28;20218;-53
2021/11/14 01:07:06;;;;;;;25.40;17.40;;;;;;;;;;2056210;28;20205;-51
2021/11/14 01:08:06;;;;;;;28.25;16.55;;;;;;;;;;2056783;28;20517;-50
2021/11/14 01:09:07;;;;;;;31.58;17.80;;;;;;;;;;2055243;28;20257;-51
2021/11/14 01:10:08;;;;;;;27.08;19.75;;;;;;;;;;2056117;28;20186;-50
2021/11/14 01:11:09;;;;;;;28.52;18.48;;;;;;;;;;2055981;28;20189;-53
2021/11/14 01:12:10;;;;;;;34.70;19.52;;;;;;;;;;2056052;28;20522;-49
2021/11/14 01:13:11;;;;;;;32.28;19.42;;;;;;;;;;2055737;28;20185;-50
2021/11/14 01:14:11;;;;;;;35.60;19.58;;;;;;;;;;2055903;28;20186;-50
2021/11/14 01:15:12;;;;;;;29.60;19.10;;;;;;;;;;2055842;28;20682;-53
2021/11/14 01:16:14;;;;;;;34.65;19.25;;;;;;;;;;2055548;28;20171;-50
2021/11/14 01:17:16;;;;;;;32.60;19.80;;;;;;;;;;2055522;28;20229;-51
2021/11/14 01:18:17;;;;;;;33.53;19.80;;;;;;;;;;2056359;28;20546;-49
2021/11/14 01:19:17;;;;;;;30.40;19.00;;;;;;;;;;2055996;28;20250;-52
2021/11/14 01:20:25;;;;;;;33.28;20.67;;;;;;;;;;2055640;28;20220;-50
2021/11/14 01:21:27;;;;;;;36.58;19.35;;;;;;;;;;2056254;28;20174;-54
2021/11/14 01:22:28;;;;;;;34.05;18.98;;;;;;;;;;2056295;28;20181;-49
2021/11/14 01:23:28;;;;;;;29.95;19.83;;;;;;;;;;2056266;28;20654;-51
2021/11/14 01:24:29;;;;;;;28.52;19.30;;;;;;;;;;2056014;28;20174;-51
2021/11/14 01:25:29;;;;;;;32.25;19.77;;;;;;;;;;2056174;28;20175;-49
2021/11/14 01:26:30;;;;;;;37.85;23.77;;;;;;;;;;2056224;28;20186;-50
2021/11/14 01:27:30;;;;;;;34.53;24.58;;;;;;;;;;2056106;28;20191;-50
2021/11/14 01:28:30;;;;;;;33.30;20.50;;;;;;;;;;2054244;28;20257;-51
2021/11/14 01:29:31;;;;;;;35.15;23.13;;;;;;;;;;2050702;28;20710;-49
2021/11/14 01:30:34;;;;;;;32.53;21.70;;;;;;;;;;2058614;28;20589;-49
2021/11/14 01:31:34;;;;;;;39.13;24.42;;;;;;;;;;2056589;28;20187;-49
2021/11/14 01:32:34;;;;;;;39.78;25.88;;;;;;;;;;2056881;28;20170;-49
2021/11/14 01:33:35;;;;;;;41.00;27.77;;;;;;;;;;2056673;28;20177;-48
2021/11/14 01:34:35;;;;;;;47.03;27.35;;;;;;;;;;2056485;28;20615;-47
2021/11/14 01:35:36;;;;;;;37.35;21.52;;;;;;;;;;2064042;28;20193;-50
2021/11/14 01:36:36;;;;;;;42.72;26.85;;;;;;;;;;2063827;28;20215;-49
2021/11/14 01:37:37;;;;;;;32.65;20.95;;;;;;;;;;2064363;28;20224;-49
2021/11/14 01:38:37;;;;;;;36.08;21.33;;;;;;;;;;2064690;28;20209;-53
2021/11/14 01:39:38;;;;;;;38.03;23.60;;;;;;;;;;2058251;28;20189;-52
2021/11/14 01:40:40;;;;;;;33.42;21.85;;;;;;;;;;2059571;28;20171;-52
2021/11/14 01:41:40;;;;;;;37.35;23.20;;;;;;;;;;2059987;28;20186;-52
2021/11/14 01:42:40;;;;;;;36.40;22.50;;;;;;;;;;2058871;28;20178;-52
2021/11/14 01:43:43;;;;;;;37.97;23.13;;;;;;;;;;2056766;28;20179;-52
2021/11/14 01:44:43;;;;;;;39.38;23.75;;;;;;;;;;2056962;28;20187;-52
2021/11/14 01:45:44;;;;;;;44.00;24.58;;;;;;;;;;2056133;28;20185;-51
2021/11/14 01:46:45;;;;;;;41.25;24.35;;;;;;;;;;2056592;28;20170;-49
2021/11/14 01:47:45;;;;;;;44.20;24.33;;;;;;;;;;2055857;28;20170;-49
2021/11/14 01:48:46;;;;;;;43.13;23.60;;;;;;;;;;2055945;28;20214;-50
2021/11/14 01:49:47;;;;;;;39.88;24.20;;;;;;;;;;2057772;28;20170;-51
2021/11/14 01:50:47;;;;;;;42.63;24.40;;;;;;;;;;2057532;28;20245;-51
2021/11/14 01:51:47;;;;;;;40.60;22.80;;;;;;;;;;2059560;28;20179;-51
2021/11/14 01:52:49;;;;;;;46.40;23.48;;;;;;;;;;2058976;28;20521;-51
2021/11/14 01:53:49;;;;;;;43.65;24.20;;;;;;;;;;2060826;28;20198;-48
2021/11/14 01:54:49;;;;;;;45.85;23.30;;;;;;;;;;2064962;28;20174;-52
2021/11/14 01:55:49;;;;;;;45.08;23.33;;;;;;;;;;2057732;28;20220;-51
2021/11/14 01:56:50;;;;;;;44.90;22.70;;;;;;;;;;2057662;28;20174;-53
2021/11/14 01:57:50;;;;;;;47.60;24.17;;;;;;;;;;2057658;28;20541;-50
2021/11/14 01:58:52;;;;;;;44.45;22.60;;;;;;;;;;2057766;28;20186;-53
2021/11/14 01:59:52;;;;;;;52.08;24.77;;;;;;;;;;2058224;28;20178;-53
2021/11/14 02:01:01;;;;;;;46.15;24.17;;;;;;;;;;2057871;28;20577;-49
2021/11/14 02:02:02;;;;;;;45.65;24.67;;;;;;;;;;2058375;28;20182;-51
2021/11/14 02:03:02;;;;;;;50.38;24.38;;;;;;;;;;2058237;28;20531;-51
2021/11/14 02:04:05;;;;;;;50.17;25.15;;;;;;;;;;2058335;28;20178;-49
2021/11/14 02:05:06;;;;;;;45.60;24.73;;;;;;;;;;2058667;28;20214;-49
2021/11/14 02:06:07;;;;;;;44.53;22.58;;;;;;;;;;2060312;28;20174;-49
2021/11/14 02:07:08;;;;;;;46.60;25.40;;;;;;;;;;2060262;28;20194;-50
2021/11/14 02:08:09;;;;;;;46.45;25.23;;;;;;;;;;2059859;28;20174;-49
2021/11/14 02:09:09;;;;;;;48.83;23.63;;;;;;;;;;2060445;28;20201;-53
2021/11/14 02:10:09;;;;;;;46.53;23.65;;;;;;;;;;2057717;28;20250;-49
2021/11/14 02:11:14;;;;;;;45.95;23.40;;;;;;;;;;2057393;28;20188;-49
2021/11/14 02:12:15;;;;;;;45.58;24.25;;;;;;;;;;2057750;28;20612;-49
2021/11/14 02:13:16;;;;;;;47.03;23.67;;;;;;;;;;2057787;28;20185;-50
2021/11/14 02:14:16;;;;;;;49.22;23.95;;;;;;;;;;2058348;28;20650;-49
2021/11/14 02:15:17;;;;;;;47.13;23.88;;;;;;;;;;2058535;28;20284;-51
2021/11/14 02:16:20;;;;;;;40.75;21.50;;;;;;;;;;2059080;28;20605;-50
2021/11/14 02:17:20;;;;;;;45.50;23.90;;;;;;;;;;2058778;28;20186;-50
2021/11/14 02:18:20;;;;;;;47.38;24.15;;;;;;;;;;2058940;28;20169;-50
2021/11/14 02:19:21;;;;;;;45.13;23.48;;;;;;;;;;2060165;28;20206;-50
2021/11/14 02:20:22;;;;;;;45.35;23.40;;;;;;;;;;2059279;28;20174;-49
2021/11/14 02:21:22;;;;;;;48.88;23.98;;;;;;;;;;2068084;28;20177;-51
2021/11/14 02:22:23;;;;;;;47.45;23.08;;;;;;;;;;2061390;28;20825;-48
2021/11/14 02:23:24;;;;;;;45.33;23.08;;;;;;;;;;2060195;28;20170;-51
2021/11/14 02:24:25;;;;;;;50.08;25.65;;;;;;;;;;2060543;28;20221;-49
2021/11/14 02:25:25;;;;;;;46.08;23.70;;;;;;;;;;2059813;28;20644;-50
2021/11/14 02:26:25;;;;;;;54.47;24.10;;;;;;;;;;2057584;28;20179;-49
2021/11/14 02:27:25;;;;;;;46.15;24.30;;;;;;;;;;2055746;28;20202;-49
2021/11/14 02:28:26;;;;;;;49.42;22.92;;;;;;;;;;2058504;28;20190;-50
2021/11/14 02:29:26;;;;;;;47.75;24.17;;;;;;;;;;2071017;28;20240;-52
2021/11/14 02:30:27;;;;;;;42.97;23.25;;;;;;;;;;2054088;28;20544;-50
2021/11/14 02:31:28;;;;;;;44.13;23.95;;;;;;;;;;2058758;28;20261;-52
2021/11/14 02:32:28;;;;;;;50.83;24.63;;;;;;;;;;2058459;28;20201;-50
2021/11/14 02:33:29;;;;;;;46.90;24.75;;;;;;;;;;2060414;28;20471;-52
2021/11/14 02:34:29;;;;;;;47.33;23.00;;;;;;;;;;2059301;28;20213;-48
2021/11/14 02:35:31;;;;;;;44.80;23.60;;;;;;;;;;2059919;28;20182;-51
2021/11/14 02:36:32;;;;;;;56.47;24.27;;;;;;;;;;2060248;28;20632;-50
2021/11/14 02:37:32;;;;;;;47.72;23.73;;;;;;;;;;2057662;28;20294;-50
2021/11/14 02:38:33;;;;;;;44.72;23.10;;;;;;;;;;2059516;28;20186;-51
2021/11/14 02:39:33;;;;;;;50.40;25.30;;;;;;;;;;2064384;28;20198;-53
2021/11/14 02:40:33;;;;;;;50.03;24.65;;;;;;;;;;2063377;28;20217;-53
2021/11/14 02:41:34;;;;;;;50.00;24.60;;;;;;;;;;2070926;28;20202;-52
2021/11/14 02:42:34;;;;;;;43.15;24.73;;;;;;;;;;2071488;28;20249;-53
2021/11/14 02:43:35;;;;;;;46.08;25.40;;;;;;;;;;2063881;28;20539;-54
2021/11/14 02:44:36;;;;;;;49.17;26.05;;;;;;;;;;2063303;28;20185;-52
2021/11/14 02:45:36;;;;;;;44.95;24.67;;;;;;;;;;2062890;28;20213;-53
2021/11/14 02:46:37;;;;;;;48.22;25.55;;;;;;;;;;2061655;28;20178;-52
2021/11/14 02:47:38;;;;;;;46.55;24.33;;;;;;;;;;2063670;28;20212;-55
2021/11/14 02:48:38;;;;;;;45.22;25.23;;;;;;;;;;2063630;28;20253;-49
2021/11/14 02:49:38;;;;;;;48.03;25.25;;;;;;;;;;2063676;28;20175;-53
2021/11/14 02:50:39;;;;;;;49.95;24.67;;;;;;;;;;2064278;28;20182;-50
2021/11/14 02:51:39;;;;;;;53.17;25.90;;;;;;;;;;2064128;28;20166;-53
2021/11/14 02:52:39;;;;;;;53.22;26.45;;;;;;;;;;2069147;28;20166;-52
2021/11/14 02:53:40;;;;;;;46.42;25.00;;;;;;;;;;2071484;28;20205;-51
2021/11/14 02:54:40;;;;;;;49.13;24.85;;;;;;;;;;2064018;28;20257;-53
2021/11/14 02:55:41;;;;;;;36.05;23.55;;;;;;;;;;2064508;28;20193;-52
2021/11/14 02:56:42;;;;;;;48.67;24.77;;;;;;;;;;2063788;28;20202;-50
2021/11/14 02:57:42;;;;;;;45.38;25.83;;;;;;;;;;2065188;28;20192;-54
2021/11/14 02:58:43;;;;;;;47.25;27.00;;;;;;;;;;2064748;28;20194;-50
2021/11/14 02:59:44;;;;;;;42.63;24.63;;;;;;;;;;2065239;28;20197;-52
2021/11/14 03:00:50;;;;;;;43.78;25.52;;;;;;;;;;2063809;28;20178;-52
2021/11/14 03:01:53;;;;;;;43.78;24.88;;;;;;;;;;2057364;28;20170;-52
2021/11/14 03:02:54;;;;;;;45.22;24.50;;;;;;;;;;2065414;28;20233;-51
2021/11/14 03:03:55;;;;;;;42.20;24.30;;;;;;;;;;2065114;28;20193;-53
2021/11/14 03:04:55;;;;;;;41.22;25.00;;;;;;;;;;2064909;28;20174;-50
2021/11/14 03:05:56;;;;;;;42.45;24.52;;;;;;;;;;2064725;28;20240;-53
2021/11/14 03:06:59;;;;;;;43.67;23.85;;;;;;;;;;2059307;28;20203;-49
2021/11/14 03:07:59;;;;;;;37.10;24.20;;;;;;;;;;2059880;28;20167;-53
2021/11/14 03:08:59;;;;;;;38.13;23.77;;;;;;;;;;2066707;28;20780;-50
2021/11/14 03:10:00;;;;;;;38.17;24.92;;;;;;;;;;2066300;28;20789;-54
2021/11/14 03:11:01;;;;;;;38.08;24.38;;;;;;;;;;2062559;28;20171;-53
2021/11/14 03:12:02;;;;;;;41.55;23.10;;;;;;;;;;2058573;28;20174;-52
2021/11/14 03:13:05;;;;;;;37.78;23.42;;;;;;;;;;2064163;28;20199;-53
2021/11/14 03:14:05;;;;;;;41.88;22.52;;;;;;;;;;2065986;28;20221;-55
2021/11/14 03:15:06;;;;;;;37.17;23.50;;;;;;;;;;2063647;28;20190;-51
2021/11/14 03:16:08;;;;;;;35.83;24.30;;;;;;;;;;2065700;28;20167;-53
2021/11/14 03:17:08;;;;;;;38.28;23.98;;;;;;;;;;2061365;28;20190;-53
2021/11/14 03:18:09;;;;;;;34.72;23.88;;;;;;;;;;2066676;28;20707;-52
2021/11/14 03:19:09;;;;;;;34.25;22.00;;;;;;;;;;2066315;28;20166;-53
2021/11/14 03:20:09;;;;;;;35.03;23.10;;;;;;;;;;2067327;28;20178;-53
2021/11/14 03:21:10;;;;;;;33.30;22.85;;;;;;;;;;2066415;28;20209;-51
2021/11/14 03:22:11;;;;;;;35.28;24.58;;;;;;;;;;2074528;28;20193;-49
2021/11/14 03:23:11;;;;;;;32.35;21.95;;;;;;;;;;2074990;28;20157;-54
2021/11/14 03:24:12;;;;;;;32.75;22.48;;;;;;;;;;2066694;28;20166;-55
2021/11/14 03:25:12;;;;;;;32.45;22.27;;;;;;;;;;2064891;28;20206;-53
2021/11/14 03:26:13;;;;;;;28.67;21.98;;;;;;;;;;2057511;28;20201;-51
2021/11/14 03:27:13;;;;;;;33.33;22.75;;;;;;;;;;2058210;28;20237;-50
2021/11/14 03:28:14;;;;;;;33.47;21.80;;;;;;;;;;2057790;28;20658;-55
2021/11/14 03:29:14;;;;;;;32.03;21.50;;;;;;;;;;2064910;28;20181;-50
2021/11/14 03:30:15;;;;;;;30.95;23.13;;;;;;;;;;2063783;28;20197;-50
2021/11/14 03:31:15;;;;;;;28.85;20.90;;;;;;;;;;2061081;28;20182;-52
2021/11/14 03:32:15;;;;;;;29.42;21.70;;;;;;;;;;2048757;29;20207;-50
2021/11/14 03:33:16;;;;;;;29.95;20.88;;;;;;;;;;2056468;28;20575;-53
2021/11/14 03:34:16;;;;;;;27.52;20.02;;;;;;;;;;2056796;28;20190;-51
2021/11/14 03:35:17;;;;;;;30.75;21.10;;;;;;;;;;2064658;28;20174;-52
2021/11/14 03:36:18;;;;;;;31.40;22.13;;;;;;;;;;2064548;28;20193;-49
2021/11/14 03:37:20;;;;;;;28.50;21.25;;;;;;;;;;2057671;28;20205;-50
2021/11/14 03:38:22;;;;;;;30.25;21.50;;;;;;;;;;2056900;28;20654;-49
2021/11/14 03:39:22;;;;;;;27.13;21.42;;;;;;;;;;2057113;28;20206;-50
2021/11/14 03:40:22;;;;;;;25.60;20.20;;;;;;;;;;2055474;28;20650;-49
2021/11/14 03:41:24;;;;;;;28.08;21.88;;;;;;;;;;2064492;28;20629;-53
2021/11/14 03:42:25;;;;;;;26.65;20.90;;;;;;;;;;2056435;28;20181;-52
2021/11/14 03:43:25;;;;;;;30.75;21.10;;;;;;;;;;2056952;28;20636;-50
2021/11/14 03:44:25;;;;;;;31.20;22.63;;;;;;;;;;2057007;28;20712;-49
2021/11/14 03:45:26;;;;;;;29.65;20.92;;;;;;;;;;2057169;28;20205;-50
2021/11/14 03:46:26;;;;;;;29.27;21.02;;;;;;;;;;2057020;28;20269;-50
2021/11/14 03:47:26;;;;;;;27.25;21.08;;;;;;;;;;2056705;28;20200;-48
2021/11/14 03:48:27;;;;;;;29.65;21.95;;;;;;;;;;2057005;28;20189;-52
2021/11/14 03:49:27;;;;;;;29.70;22.08;;;;;;;;;;2055596;28;20228;-50
2021/11/14 03:50:28;;;;;;;31.15;22.60;;;;;;;;;;2052977;28;20175;-50
2021/11/14 03:51:28;;;;;;;28.70;20.90;;;;;;;;;;2053985;28;20198;-51
2021/11/14 03:52:29;;;;;;;29.67;21.52;;;;;;;;;;2057489;28;20192;-51
2021/11/14 03:53:29;;;;;;;28.83;22.75;;;;;;;;;;2064015;28;20173;-50
2021/11/14 03:54:29;;;;;;;31.05;21.55;;;;;;;;;;2063738;28;20292;-52
2021/11/14 03:55:29;;;;;;;31.92;22.60;;;;;;;;;;2056512;28;20181;-53
2021/11/14 03:56:31;;;;;;;32.92;23.30;;;;;;;;;;2059024;28;20178;-53
2021/11/14 03:57:31;;;;;;;32.45;22.42;;;;;;;;;;2057901;28;20273;-54
2021/11/14 03:58:32;;;;;;;31.63;23.27;;;;;;;;;;2057450;28;20178;-52
2021/11/14 03:59:33;;;;;;;30.50;24.08;;;;;;;;;;2056807;28;20185;-50
2021/11/14 04:00:35;;;;;;;29.02;21.38;;;;;;;;;;2056943;28;20325;-51
2021/11/14 04:01:35;;;;;;;33.95;22.63;;;;;;;;;;2057023;28;20171;-51
2021/11/14 04:02:36;;;;;;;29.33;22.50;;;;;;;;;;2056643;28;20190;-52
2021/11/14 04:03:37;;;;;;;32.67;21.60;;;;;;;;;;2056503;28;20183;-50
2021/11/14 04:04:37;;;;;;;34.72;22.90;;;;;;;;;;2055426;28;20598;-50
2021/11/14 04:05:38;;;;;;;30.73;20.98;;;;;;;;;;2055795;28;20186;-50
2021/11/14 04:06:38;;;;;;;32.75;22.33;;;;;;;;;;2056734;28;20182;-53
2021/11/14 04:07:38;;;;;;;34.60;23.77;;;;;;;;;;2055751;28;20173;-53
2021/11/14 04:08:39;;;;;;;31.23;21.85;;;;;;;;;;2056675;28;20166;-54
2021/11/14 04:09:39;;;;;;;31.67;21.58;;;;;;;;;;2056254;28;20370;-50
2021/11/14 04:10:40;;;;;;;34.90;22.33;;;;;;;;;;2056440;28;20170;-52
2021/11/14 04:11:40;;;;;;;33.83;23.30;;;;;;;;;;2056176;28;20213;-51
2021/11/14 04:12:42;;;;;;;30.75;21.90;;;;;;;;;;2056215;28;20174;-52
2021/11/14 04:13:42;;;;;;;31.10;21.35;;;;;;;;;;2056046;28;20681;-51
2021/11/14 04:14:42;;;;;;;33.45;23.55;;;;;;;;;;2057375;28;20178;-50
2021/11/14 04:15:43;;;;;;;33.55;22.75;;;;;;;;;;2056063;28;20605;-54
2021/11/14 04:16:43;;;;;;;30.90;21.40;;;;;;;;;;2056339;28;20180;-53
2021/11/14 04:17:44;;;;;;;30.95;21.98;;;;;;;;;;2056646;28;20186;-49
2021/11/14 04:18:44;;;;;;;32.85;23.00;;;;;;;;;;2056568;28;20201;-49
2021/11/14 04:19:45;;;;;;;31.40;22.77;;;;;;;;;;2056027;28;20721;-51
2021/11/14 04:20:46;;;;;;;32.30;22.95;;;;;;;;;;2056979;28;20200;-52
2021/11/14 04:21:46;;;;;;;37.30;23.52;;;;;;;;;;2057258;28;20531;-49
2021/11/14 04:22:46;;;;;;;37.95;23.98;;;;;;;;;;2057435;28;20166;-50
2021/11/14 04:23:46;;;;;;;31.52;23.42;;;;;;;;;;2057264;28;20202;-52
2021/11/14 04:24:47;;;;;;;29.23;21.50;;;;;;;;;;2057403;28;20566;-53
2021/11/14 04:25:47;;;;;;;34.10;23.35;;;;;;;;;;2057298;28;20547;-52
2021/11/14 04:26:48;;;;;;;34.13;24.08;;;;;;;;;;2057155;28;20225;-51
2021/11/14 04:27:48;;;;;;;36.00;22.95;;;;;;;;;;2057153;28;20174;-49
2021/11/14 04:28:48;;;;;;;34.53;24.17;;;;;;;;;;2057020;28;20171;-49
2021/11/14 04:29:48;;;;;;;33.13;22.95;;;;;;;;;;2064687;28;20185;-49
2021/11/14 04:30:50;;;;;;;38.22;24.38;;;;;;;;;;2064247;28;20181;-50
2021/11/14 04:31:50;;;;;;;36.40;24.70;;;;;;;;;;2064858;28;20198;-49
2021/11/14 04:32:50;;;;;;;36.80;24.55;;;;;;;;;;2056610;28;20686;-48
2021/11/14 04:33:51;;;;;;;39.88;24.63;;;;;;;;;;2056692;28;20177;-50
2021/11/14 04:34:51;;;;;;;38.10;26.15;;;;;;;;;;2057523;28;20269;-49
2021/11/14 04:35:52;;;;;;;41.05;24.33;;;;;;;;;;2057259;28;20579;-49
2021/11/14 04:36:52;;;;;;;42.47;26.92;;;;;;;;;;2064449;28;20260;-49
2021/11/14 04:37:52;;;;;;;37.75;25.08;;;;;;;;;;2064678;28;20158;-51
2021/11/14 04:38:52;;;;;;;36.28;26.35;;;;;;;;;;2056069;28;20166;-49
2021/11/14 04:39:53;;;;;;;45.45;26.95;;;;;;;;;;2057132;28;20183;-49
2021/11/14 04:40:53;;;;;;;43.45;26.77;;;;;;;;;;2055931;28;20265;-49
2021/11/14 04:41:53;;;;;;;43.47;26.55;;;;;;;;;;2056294;28;20197;-52
2021/11/14 04:42:54;;;;;;;40.72;25.85;;;;;;;;;;2056217;28;20547;-51
2021/11/14 04:43:54;;;;;;;42.40;26.00;;;;;;;;;;2056287;28;20186;-53
2021/11/14 04:44:54;;;;;;;43.53;26.63;;;;;;;;;;2056726;28;20289;-52
2021/11/14 04:45:55;;;;;;;42.75;27.63;;;;;;;;;;2056279;28;20175;-53
2021/11/14 04:46:55;;;;;;;45.53;27.75;;;;;;;;;;2056827;28;20281;-52
2021/11/14 04:47:55;;;;;;;40.50;26.80;;;;;;;;;;2056619;28;20213;-50
2021/11/14 04:48:55;;;;;;;41.85;27.02;;;;;;;;;;2051660;28;20171;-52
2021/11/14 04:49:56;;;;;;;49.55;27.92;;;;;;;;;;2057078;28;20305;-52
2021/11/14 04:50:56;;;;;;;40.00;27.92;;;;;;;;;;2055822;28;20621;-54
2021/11/14 04:51:56;;;;;;;44.78;27.67;;;;;;;;;;2057005;28;20198;-50
2021/11/14 04:52:56;;;;;;;45.72;27.15;;;;;;;;;;2056296;28;20254;-51
2021/11/14 04:53:57;;;;;;;47.15;27.90;;;;;;;;;;2056127;28;20630;-54
2021/11/14 04:54:57;;;;;;;47.33;26.88;;;;;;;;;;2056200;28;20202;-50
2021/11/14 04:55:57;;;;;;;48.47;28.42;;;;;;;;;;2051972;28;20619;-50
2021/11/14 04:56:57;;;;;;;45.03;28.70;;;;;;;;;;2056089;28;20659;-54
2021/11/14 04:57:58;;;;;;;49.75;29.45;;;;;;;;;;2056786;28;20185;-51
2021/11/14 04:58:58;;;;;;;46.60;28.23;;;;;;;;;;2056399;28;20186;-51
2021/11/14 04:59:59;;;;;;;47.55;28.05;;;;;;;;;;2057255;28;20167;-51
2021/11/14 05:00:59;;;;;;;50.85;28.27;;;;;;;;;;2056049;28;20607;-53
2021/11/14 05:01:59;;;;;;;51.35;28.45;;;;;;;;;;2056450;28;20170;-50
2021/11/14 05:03:00;;;;;;;53.03;28.67;;;;;;;;;;2055801;28;20182;-52
2021/11/14 05:04:00;;;;;;;47.53;28.25;;;;;;;;;;2055962;28;20186;-51
2021/11/14 05:05:01;;;;;;;52.13;30.08;;;;;;;;;;2056464;28;20174;-51
2021/11/14 05:06:01;;;;;;;52.33;28.38;;;;;;;;;;2055891;28;20714;-52
2021/11/14 05:07:01;;;;;;;48.67;28.50;;;;;;;;;;2064438;28;20205;-49
2021/11/14 05:08:02;;;;;;;45.67;28.13;;;;;;;;;;2065093;28;20252;-49
2021/11/14 05:09:03;;;;;;;48.80;28.23;;;;;;;;;;2058452;28;20714;-52
2021/11/14 05:10:04;;;;;;;50.40;29.02;;;;;;;;;;2059895;28;20190;-50
2021/11/14 05:11:05;;;;;;;45.50;27.70;;;;;;;;;;2058817;28;20180;-52
2021/11/14 05:12:05;;;;;;;52.15;28.63;;;;;;;;;;2057130;28;20189;-54
2021/11/14 05:13:06;;;;;;;43.03;28.40;;;;;;;;;;2057940;28;20217;-52
2021/11/14 05:14:06;;;;;;;47.20;28.50;;;;;;;;;;2057961;28;20205;-53
2021/11/14 05:15:07;;;;;;;49.38;28.33;;;;;;;;;;2057756;28;20176;-55
2021/11/14 05:16:07;;;;;;;43.70;26.55;;;;;;;;;;2057610;28;20169;-55
2021/11/14 05:17:08;;;;;;;49.53;29.92;;;;;;;;;;2057759;28;20205;-55
2021/11/14 05:18:08;;;;;;;44.05;27.15;;;;;;;;;;2057289;28;20178;-54
2021/11/14 05:19:08;;;;;;;47.97;26.98;;;;;;;;;;2057620;28;20236;-53
2021/11/14 05:20:09;;;;;;;43.88;25.92;;;;;;;;;;2057338;28;20186;-53
2021/11/14 05:21:09;;;;;;;46.60;27.48;;;;;;;;;;2054302;28;20170;-54
2021/11/14 05:22:09;;;;;;;43.45;28.55;;;;;;;;;;2057337;28;20182;-50
2021/11/14 05:23:13;;;;;;;42.90;27.38;;;;;;;;;;2057315;28;20175;-51
2021/11/14 05:24:14;;;;;;;46.83;27.65;;;;;;;;;;2058363;28;20193;-50
2021/11/14 05:25:14;;;;;;;45.08;26.20;;;;;;;;;;2061090;28;20174;-51
2021/11/14 05:26:15;;;;;;;46.45;26.50;;;;;;;;;;2061140;28;20227;-51
2021/11/14 05:27:15;;;;;;;45.78;26.95;;;;;;;;;;2059694;28;20266;-51
2021/11/14 05:28:16;;;;;;;41.05;26.10;;;;;;;;;;2058976;28;20178;-51
2021/11/14 05:29:16;;;;;;;43.75;26.67;;;;;;;;;;2058500;28;20170;-49
2021/11/14 05:30:16;;;;;;;39.42;25.60;;;;;;;;;;2057758;28;20178;-52
2021/11/14 05:31:17;;;;;;;41.83;26.52;;;;;;;;;;2057719;28;20174;-48
2021/11/14 05:32:17;;;;;;;44.20;26.00;;;;;;;;;;2057840;28;20206;-53
2021/11/14 05:33:17;;;;;;;39.75;26.27;;;;;;;;;;2057725;28;20189;-54
2021/11/14 05:34:18;;;;;;;39.53;24.13;;;;;;;;;;2058143;28;20241;-51
2021/11/14 05:35:18;;;;;;;40.83;26.40;;;;;;;;;;2058134;28;20182;-50
2021/11/14 05:36:18;;;;;;;41.75;26.83;;;;;;;;;;2058448;28;20214;-48
2021/11/14 05:37:18;;;;;;;43.85;26.67;;;;;;;;;;2058482;28;20972;-51
2021/11/14 05:38:19;;;;;;;41.30;26.67;;;;;;;;;;2058511;28;20226;-49
2021/11/14 05:39:19;;;;;;;41.97;26.55;;;;;;;;;;2060073;28;20182;-55
2021/11/14 05:40:20;;;;;;;43.45;26.23;;;;;;;;;;2058725;28;20197;-54
2021/11/14 05:41:21;;;;;;;43.38;27.02;;;;;;;;;;2059049;28;20198;-52
2021/11/14 05:42:22;;;;;;;42.40;27.38;;;;;;;;;;2059392;28;20167;-54
2021/11/14 05:43:22;;;;;;;40.50;26.38;;;;;;;;;;2059621;28;20202;-52
2021/11/14 05:44:22;;;;;;;43.33;27.17;;;;;;;;;;2059145;28;20185;-50
2021/11/14 05:45:22;;;;;;;44.97;27.50;;;;;;;;;;2059030;28;20257;-50
2021/11/14 05:46:23;;;;;;;42.63;27.02;;;;;;;;;;2059507;28;20218;-50
2021/11/14 05:47:23;;;;;;;39.95;26.67;;;;;;;;;;2058952;28;20194;-49
2021/11/14 05:48:23;;;;;;;44.38;27.08;;;;;;;;;;2059116;28;20213;-49
2021/11/14 05:49:24;;;;;;;44.08;27.45;;;;;;;;;;2059003;28;20186;-49
2021/11/14 05:50:24;;;;;;;52.25;28.30;;;;;;;;;;2058677;28;20174;-50
2021/11/14 05:51:24;;;;;;;42.65;27.48;;;;;;;;;;2059309;28;20170;-49
2021/11/14 05:52:25;;;;;;;44.08;26.83;;;;;;;;;;2059455;28;20190;-50
2021/11/14 05:53:26;;;;;;;42.58;26.25;;;;;;;;;;2058800;28;20174;-49
2021/11/14 05:54:26;;;;;;;47.22;27.00;;;;;;;;;;2059168;28;20253;-49